Antler, North Dakota
Current Conditions -  °F | °C
As of 1:58 PM on Tuesday 21 Oct 2014 (Local Time) from KMIB Reporting Station
Clear Clear  
Wind Chill: 67°   Ceiling: Unl
Heat Index: 67°   Visibility: 10mi
Dew Point: 43°   Wind: 14mph
Humidity: 42%   Direction: 130°SE
Pressure: 29.68"   Gusts: NA
Location:  48.97°N, 101.28°W
Report Text: KMIB 211858Z AUTO 13012KT 10SM CLR 19/06 A2968 RMK AO2 SLP058 T01920059 $
Loading
Personal Weather Stations






























Interactive Weather Map New forecast layout! Learn more

10-Day Weather Forecast

Advertisements
Track Severe Weather on mobile